sensor_id;sensor_type;location;lat;lon;timestamp;P1;durP1;ratioP1;P2;durP2;ratioP2
14734;SDS011;7458;49.002;8.472;2022-12-19T00:01:13;68.55;;;47.63;;
14734;SDS011;7458;49.002;8.472;2022-12-19T00:04:00;69.82;;;47.28;;
14734;SDS011;7458;49.002;8.472;2022-12-19T00:06:32;81.20;;;47.55;;
14734;SDS011;7458;49.002;8.472;2022-12-19T00:08:58;68.90;;;47.83;;
14734;SDS011;7458;49.002;8.472;2022-12-19T00:11:24;72.90;;;44.33;;
14734;SDS011;7458;49.002;8.472;2022-12-19T00:13:55;66.40;;;46.60;;
14734;SDS011;7458;49.002;8.472;2022-12-19T00:16:23;70.38;;;47.72;;
14734;SDS011;7458;49.002;8.472;2022-12-19T00:18:52;71.85;;;47.63;;
14734;SDS011;7458;49.002;8.472;2022-12-19T00:21:22;68.03;;;49.38;;
14734;SDS011;7458;49.002;8.472;2022-12-19T00:23:51;58.22;;;42.08;;
14734;SDS011;7458;49.002;8.472;2022-12-19T00:28:49;68.22;;;42.13;;
14734;SDS011;7458;49.002;8.472;2022-12-19T00:31:20;64.13;;;44.25;;
14734;SDS011;7458;49.002;8.472;2022-12-19T00:33:47;63.72;;;41.85;;
14734;SDS011;7458;49.002;8.472;2022-12-19T00:36:14;57.20;;;42.63;;
14734;SDS011;7458;49.002;8.472;2022-12-19T00:38:46;61.55;;;44.03;;
14734;SDS011;7458;49.002;8.472;2022-12-19T00:41:14;62.08;;;41.50;;
14734;SDS011;7458;49.002;8.472;2022-12-19T00:43:43;53.80;;;39.58;;
14734;SDS011;7458;49.002;8.472;2022-12-19T00:46:11;68.85;;;42.03;;
14734;SDS011;7458;49.002;8.472;2022-12-19T00:48:40;62.40;;;41.25;;
14734;SDS011;7458;49.002;8.472;2022-12-19T00:51:11;59.03;;;43.85;;
14734;SDS011;7458;49.002;8.472;2022-12-19T00:53:41;63.10;;;41.22;;
14734;SDS011;7458;49.002;8.472;2022-12-19T00:56:10;65.13;;;41.17;;
14734;SDS011;7458;49.002;8.472;2022-12-19T00:58:38;57.70;;;40.75;;
14734;SDS011;7458;49.002;8.472;2022-12-19T01:01:06;55.22;;;40.38;;
14734;SDS011;7458;49.002;8.472;2022-12-19T01:03:45;69.57;;;44.00;;
14734;SDS011;7458;49.002;8.472;2022-12-19T01:06:12;58.53;;;43.40;;
14734;SDS011;7458;49.002;8.472;2022-12-19T01:08:38;57.35;;;42.25;;
14734;SDS011;7458;49.002;8.472;2022-12-19T01:11:04;66.15;;;43.85;;
14734;SDS011;7458;49.002;8.472;2022-12-19T01:13:32;56.42;;;40.90;;
14734;SDS011;7458;49.002;8.472;2022-12-19T01:16:07;57.88;;;40.83;;
14734;SDS011;7458;49.002;8.472;2022-12-19T01:18:36;62.97;;;41.22;;
14734;SDS011;7458;49.002;8.472;2022-12-19T01:21:04;62.42;;;41.55;;
14734;SDS011;7458;49.002;8.472;2022-12-19T01:23:32;53.00;;;39.53;;
14734;SDS011;7458;49.002;8.472;2022-12-19T01:25:59;62.30;;;41.20;;
14734;SDS011;7458;49.002;8.472;2022-12-19T01:28:25;58.30;;;39.22;;
14734;SDS011;7458;49.002;8.472;2022-12-19T01:30:51;57.60;;;43.95;;
14734;SDS011;7458;49.002;8.472;2022-12-19T01:33:17;70.00;;;45.28;;
14734;SDS011;7458;49.002;8.472;2022-12-19T01:35:45;58.08;;;39.78;;
14734;SDS011;7458;49.002;8.472;2022-12-19T01:38:13;57.72;;;41.28;;
14734;SDS011;7458;49.002;8.472;2022-12-19T01:40:54;50.40;;;40.55;;
14734;SDS011;7458;49.002;8.472;2022-12-19T01:43:21;64.15;;;40.45;;
14734;SDS011;7458;49.002;8.472;2022-12-19T01:46:09;61.53;;;43.15;;
14734;SDS011;7458;49.002;8.472;2022-12-19T01:48:39;63.50;;;42.22;;
14734;SDS011;7458;49.002;8.472;2022-12-19T01:51:12;55.88;;;41.85;;
14734;SDS011;7458;49.002;8.472;2022-12-19T01:53:49;62.75;;;41.00;;
14734;SDS011;7458;49.002;8.472;2022-12-19T01:56:28;55.28;;;38.42;;
14734;SDS011;7458;49.002;8.472;2022-12-19T01:59:04;57.00;;;41.92;;
14734;SDS011;7458;49.002;8.472;2022-12-19T02:01:40;58.38;;;38.25;;
14734;SDS011;7458;49.002;8.472;2022-12-19T02:04:09;52.00;;;37.63;;
14734;SDS011;7458;49.002;8.472;2022-12-19T02:06:38;54.08;;;36.90;;
14734;SDS011;7458;49.002;8.472;2022-12-19T02:09:06;59.63;;;38.67;;
14734;SDS011;7458;49.002;8.472;2022-12-19T02:11:33;55.92;;;41.15;;
14734;SDS011;7458;49.002;8.472;2022-12-19T02:13:59;55.20;;;38.97;;
14734;SDS011;7458;49.002;8.472;2022-12-19T02:31:30;58.33;;;39.17;;
14734;SDS011;7458;49.002;8.472;2022-12-19T02:34:02;54.90;;;36.33;;
14734;SDS011;7458;49.002;8.472;2022-12-19T02:37:08;56.67;;;35.28;;
14734;SDS011;7458;49.002;8.472;2022-12-19T02:39:44;54.55;;;37.22;;
14734;SDS011;7458;49.002;8.472;2022-12-19T02:42:30;60.15;;;41.05;;
14734;SDS011;7458;49.002;8.472;2022-12-19T02:45:03;61.17;;;40.55;;
14734;SDS011;7458;49.002;8.472;2022-12-19T02:47:33;61.55;;;41.35;;
14734;SDS011;7458;49.002;8.472;2022-12-19T02:49:59;62.60;;;41.97;;
14734;SDS011;7458;49.002;8.472;2022-12-19T02:54:54;62.45;;;42.05;;
14734;SDS011;7458;49.002;8.472;2022-12-19T03:09:49;53.97;;;39.70;;
14734;SDS011;7458;49.002;8.472;2022-12-19T03:12:33;54.45;;;42.10;;
14734;SDS011;7458;49.002;8.472;2022-12-19T03:15:24;53.75;;;39.78;;
14734;SDS011;7458;49.002;8.472;2022-12-19T03:17:51;54.88;;;38.92;;
14734;SDS011;7458;49.002;8.472;2022-12-19T03:25:36;53.92;;;36.42;;
14734;SDS011;7458;49.002;8.472;2022-12-19T03:28:08;55.33;;;39.75;;
14734;SDS011;7458;49.002;8.472;2022-12-19T03:30:45;50.97;;;37.03;;
14734;SDS011;7458;49.002;8.472;2022-12-19T03:33:13;64.97;;;38.90;;
14734;SDS011;7458;49.002;8.472;2022-12-19T03:35:43;59.80;;;41.63;;
14734;SDS011;7458;49.002;8.472;2022-12-19T03:38:12;61.17;;;43.95;;
14734;SDS011;7458;49.002;8.472;2022-12-19T03:40:43;74.47;;;43.25;;
14734;SDS011;7458;49.002;8.472;2022-12-19T03:43:11;59.45;;;46.05;;
14734;SDS011;7458;49.002;8.472;2022-12-19T03:53:59;66.13;;;44.40;;
14734;SDS011;7458;49.002;8.472;2022-12-19T03:56:45;57.83;;;40.25;;
14734;SDS011;7458;49.002;8.472;2022-12-19T03:59:40;61.08;;;42.35;;
14734;SDS011;7458;49.002;8.472;2022-12-19T04:02:13;55.28;;;38.55;;
14734;SDS011;7458;49.002;8.472;2022-12-19T04:04:45;64.47;;;42.92;;
14734;SDS011;7458;49.002;8.472;2022-12-19T04:07:18;59.90;;;42.22;;
14734;SDS011;7458;49.002;8.472;2022-12-19T04:09:45;55.50;;;39.33;;
14734;SDS011;7458;49.002;8.472;2022-12-19T04:12:15;63.78;;;39.78;;
14734;SDS011;7458;49.002;8.472;2022-12-19T04:14:45;57.95;;;41.28;;
14734;SDS011;7458;49.002;8.472;2022-12-19T04:17:22;67.35;;;44.90;;
14734;SDS011;7458;49.002;8.472;2022-12-19T04:22:34;56.83;;;43.72;;
14734;SDS011;7458;49.002;8.472;2022-12-19T04:25:17;67.35;;;40.10;;
14734;SDS011;7458;49.002;8.472;2022-12-19T04:27:52;59.63;;;45.05;;
14734;SDS011;7458;49.002;8.472;2022-12-19T04:30:23;63.50;;;40.88;;
14734;SDS011;7458;49.002;8.472;2022-12-19T04:32:50;77.55;;;46.10;;
14734;SDS011;7458;49.002;8.472;2022-12-19T04:35:17;55.80;;;39.40;;
14734;SDS011;7458;49.002;8.472;2022-12-19T04:37:43;58.40;;;39.95;;
14734;SDS011;7458;49.002;8.472;2022-12-19T04:40:09;58.50;;;40.03;;
14734;SDS011;7458;49.002;8.472;2022-12-19T04:42:36;56.05;;;38.60;;
14734;SDS011;7458;49.002;8.472;2022-12-19T04:45:02;58.17;;;39.08;;
14734;SDS011;7458;49.002;8.472;2022-12-19T04:47:29;59.67;;;42.47;;
14734;SDS011;7458;49.002;8.472;2022-12-19T04:49:55;60.03;;;41.78;;
14734;SDS011;7458;49.002;8.472;2022-12-19T04:52:21;66.80;;;40.97;;
14734;SDS011;7458;49.002;8.472;2022-12-19T04:54:47;61.60;;;41.92;;
14734;SDS011;7458;49.002;8.472;2022-12-19T04:57:13;55.70;;;40.25;;
14734;SDS011;7458;49.002;8.472;2022-12-19T04:59:38;57.33;;;43.80;;
14734;SDS011;7458;49.002;8.472;2022-12-19T05:02:05;52.00;;;38.95;;
14734;SDS011;7458;49.002;8.472;2022-12-19T05:04:31;59.60;;;39.15;;
14734;SDS011;7458;49.002;8.472;2022-12-19T05:06:57;58.70;;;39.17;;
14734;SDS011;7458;49.002;8.472;2022-12-19T05:09:22;57.63;;;41.58;;
14734;SDS011;7458;49.002;8.472;2022-12-19T05:11:48;63.78;;;40.92;;
14734;SDS011;7458;49.002;8.472;2022-12-19T05:14:14;65.28;;;43.50;;
14734;SDS011;7458;49.002;8.472;2022-12-19T05:16:40;55.38;;;38.08;;
14734;SDS011;7458;49.002;8.472;2022-12-19T05:19:05;58.53;;;42.30;;
14734;SDS011;7458;49.002;8.472;2022-12-19T05:21:31;49.58;;;39.33;;
14734;SDS011;7458;49.002;8.472;2022-12-19T05:23:57;52.20;;;36.58;;
14734;SDS011;7458;49.002;8.472;2022-12-19T05:26:23;52.10;;;36.88;;
14734;SDS011;7458;49.002;8.472;2022-12-19T05:28:49;50.67;;;37.78;;
14734;SDS011;7458;49.002;8.472;2022-12-19T05:31:15;56.72;;;36.67;;
14734;SDS011;7458;49.002;8.472;2022-12-19T05:33:45;58.67;;;36.00;;
14734;SDS011;7458;49.002;8.472;2022-12-19T05:36:13;46.50;;;32.35;;
14734;SDS011;7458;49.002;8.472;2022-12-19T05:38:40;51.35;;;36.55;;
14734;SDS011;7458;49.002;8.472;2022-12-19T05:41:11;48.47;;;35.00;;
14734;SDS011;7458;49.002;8.472;2022-12-19T05:43:40;52.88;;;34.42;;
14734;SDS011;7458;49.002;8.472;2022-12-19T05:46:06;61.63;;;36.28;;
14734;SDS011;7458;49.002;8.472;2022-12-19T05:48:32;54.75;;;34.65;;
14734;SDS011;7458;49.002;8.472;2022-12-19T05:50:59;64.60;;;38.00;;
14734;SDS011;7458;49.002;8.472;2022-12-19T05:53:25;52.80;;;38.10;;
14734;SDS011;7458;49.002;8.472;2022-12-19T05:58:35;49.95;;;37.50;;
14734;SDS011;7458;49.002;8.472;2022-12-19T06:01:09;47.00;;;36.10;;
14734;SDS011;7458;49.002;8.472;2022-12-19T06:03:40;61.83;;;35.72;;
14734;SDS011;7458;49.002;8.472;2022-12-19T06:06:07;57.83;;;36.72;;
14734;SDS011;7458;49.002;8.472;2022-12-19T06:08:36;52.58;;;35.95;;
14734;SDS011;7458;49.002;8.472;2022-12-19T06:11:04;52.35;;;38.05;;
14734;SDS011;7458;49.002;8.472;2022-12-19T06:13:32;47.10;;;37.05;;
14734;SDS011;7458;49.002;8.472;2022-12-19T06:15:59;52.13;;;38.70;;
14734;SDS011;7458;49.002;8.472;2022-12-19T06:18:29;58.13;;;37.30;;
14734;SDS011;7458;49.002;8.472;2022-12-19T06:21:00;51.38;;;36.55;;
14734;SDS011;7458;49.002;8.472;2022-12-19T06:23:29;61.47;;;37.17;;
14734;SDS011;7458;49.002;8.472;2022-12-19T06:25:59;49.28;;;33.35;;
14734;SDS011;7458;49.002;8.472;2022-12-19T06:28:27;56.92;;;39.00;;
14734;SDS011;7458;49.002;8.472;2022-12-19T06:30:55;48.25;;;35.38;;
14734;SDS011;7458;49.002;8.472;2022-12-19T06:33:27;52.58;;;38.45;;
14734;SDS011;7458;49.002;8.472;2022-12-19T06:36:05;52.85;;;36.88;;
14734;SDS011;7458;49.002;8.472;2022-12-19T06:38:35;55.42;;;37.78;;
14734;SDS011;7458;49.002;8.472;2022-12-19T06:41:01;47.63;;;35.33;;
14734;SDS011;7458;49.002;8.472;2022-12-19T06:43:47;52.15;;;37.95;;
14734;SDS011;7458;49.002;8.472;2022-12-19T06:46:12;53.03;;;36.83;;
14734;SDS011;7458;49.002;8.472;2022-12-19T06:48:38;51.20;;;35.75;;
14734;SDS011;7458;49.002;8.472;2022-12-19T06:51:04;55.67;;;39.33;;
14734;SDS011;7458;49.002;8.472;2022-12-19T06:53:30;53.85;;;36.38;;
14734;SDS011;7458;49.002;8.472;2022-12-19T06:55:57;50.28;;;36.72;;
14734;SDS011;7458;49.002;8.472;2022-12-19T06:58:27;48.45;;;34.90;;
14734;SDS011;7458;49.002;8.472;2022-12-19T07:00:52;55.25;;;37.60;;
14734;SDS011;7458;49.002;8.472;2022-12-19T07:03:20;48.42;;;36.63;;
14734;SDS011;7458;49.002;8.472;2022-12-19T07:05:53;49.30;;;37.05;;
14734;SDS011;7458;49.002;8.472;2022-12-19T07:08:19;56.63;;;37.38;;
14734;SDS011;7458;49.002;8.472;2022-12-19T07:10:45;49.88;;;34.95;;
14734;SDS011;7458;49.002;8.472;2022-12-19T07:13:10;55.70;;;35.88;;
14734;SDS011;7458;49.002;8.472;2022-12-19T07:15:36;43.92;;;36.67;;
14734;SDS011;7458;49.002;8.472;2022-12-19T07:18:04;55.92;;;38.35;;
14734;SDS011;7458;49.002;8.472;2022-12-19T07:20:33;56.25;;;38.40;;
14734;SDS011;7458;49.002;8.472;2022-12-19T07:23:03;50.05;;;37.42;;
14734;SDS011;7458;49.002;8.472;2022-12-19T07:25:31;50.00;;;38.05;;
14734;SDS011;7458;49.002;8.472;2022-12-19T07:27:57;59.25;;;35.97;;
14734;SDS011;7458;49.002;8.472;2022-12-19T07:30:24;47.75;;;35.85;;
14734;SDS011;7458;49.002;8.472;2022-12-19T07:32:49;49.03;;;32.95;;
14734;SDS011;7458;49.002;8.472;2022-12-19T07:35:15;48.10;;;35.17;;
14734;SDS011;7458;49.002;8.472;2022-12-19T07:37:41;50.53;;;37.63;;
14734;SDS011;7458;49.002;8.472;2022-12-19T07:40:06;42.90;;;37.80;;
14734;SDS011;7458;49.002;8.472;2022-12-19T07:42:33;43.33;;;33.67;;
14734;SDS011;7458;49.002;8.472;2022-12-19T07:44:59;49.45;;;35.15;;
14734;SDS011;7458;49.002;8.472;2022-12-19T07:47:25;48.63;;;37.33;;
14734;SDS011;7458;49.002;8.472;2022-12-19T07:49:52;53.08;;;37.67;;
14734;SDS011;7458;49.002;8.472;2022-12-19T07:52:18;54.38;;;34.25;;
14734;SDS011;7458;49.002;8.472;2022-12-19T07:54:44;44.10;;;35.50;;
14734;SDS011;7458;49.002;8.472;2022-12-19T07:57:09;47.75;;;35.88;;
14734;SDS011;7458;49.002;8.472;2022-12-19T07:59:35;46.03;;;32.70;;
14734;SDS011;7458;49.002;8.472;2022-12-19T08:02:01;50.08;;;35.85;;
14734;SDS011;7458;49.002;8.472;2022-12-19T08:04:26;44.10;;;35.97;;
14734;SDS011;7458;49.002;8.472;2022-12-19T08:06:52;45.95;;;34.88;;
14734;SDS011;7458;49.002;8.472;2022-12-19T08:09:18;47.00;;;37.08;;
14734;SDS011;7458;49.002;8.472;2022-12-19T08:11:43;51.55;;;35.50;;
14734;SDS011;7458;49.002;8.472;2022-12-19T08:14:09;48.25;;;33.58;;
14734;SDS011;7458;49.002;8.472;2022-12-19T08:16:35;47.00;;;35.05;;
14734;SDS011;7458;49.002;8.472;2022-12-19T08:19:01;49.92;;;33.97;;
14734;SDS011;7458;49.002;8.472;2022-12-19T08:21:27;54.42;;;38.55;;
14734;SDS011;7458;49.002;8.472;2022-12-19T08:23:54;49.55;;;34.45;;
14734;SDS011;7458;49.002;8.472;2022-12-19T08:26:20;61.78;;;40.42;;
14734;SDS011;7458;49.002;8.472;2022-12-19T08:28:53;49.20;;;39.60;;
14734;SDS011;7458;49.002;8.472;2022-12-19T08:31:22;53.08;;;40.28;;
14734;SDS011;7458;49.002;8.472;2022-12-19T08:33:51;50.05;;;37.85;;
14734;SDS011;7458;49.002;8.472;2022-12-19T08:36:19;49.67;;;38.80;;
14734;SDS011;7458;49.002;8.472;2022-12-19T08:38:46;52.05;;;39.70;;
14734;SDS011;7458;49.002;8.472;2022-12-19T08:41:13;51.17;;;37.42;;
14734;SDS011;7458;49.002;8.472;2022-12-19T08:43:40;49.05;;;37.40;;
14734;SDS011;7458;49.002;8.472;2022-12-19T08:46:11;50.88;;;38.20;;
14734;SDS011;7458;49.002;8.472;2022-12-19T08:48:37;55.67;;;40.17;;
14734;SDS011;7458;49.002;8.472;2022-12-19T08:51:04;61.35;;;45.10;;
14734;SDS011;7458;49.002;8.472;2022-12-19T08:53:33;65.60;;;43.50;;
14734;SDS011;7458;49.002;8.472;2022-12-19T08:56:06;66.03;;;44.05;;
14734;SDS011;7458;49.002;8.472;2022-12-19T08:58:41;55.97;;;40.83;;
14734;SDS011;7458;49.002;8.472;2022-12-19T09:01:13;52.97;;;38.33;;
14734;SDS011;7458;49.002;8.472;2022-12-19T09:03:43;51.30;;;37.35;;
14734;SDS011;7458;49.002;8.472;2022-12-19T09:06:10;50.83;;;37.08;;
14734;SDS011;7458;49.002;8.472;2022-12-19T09:08:38;50.83;;;39.10;;
14734;SDS011;7458;49.002;8.472;2022-12-19T09:11:11;52.75;;;38.90;;
14734;SDS011;7458;49.002;8.472;2022-12-19T09:13:40;50.42;;;39.85;;
14734;SDS011;7458;49.002;8.472;2022-12-19T09:16:12;52.72;;;39.78;;
14734;SDS011;7458;49.002;8.472;2022-12-19T09:18:43;52.40;;;39.17;;
14734;SDS011;7458;49.002;8.472;2022-12-19T09:21:10;53.20;;;40.13;;
14734;SDS011;7458;49.002;8.472;2022-12-19T09:23:38;44.90;;;36.22;;
14734;SDS011;7458;49.002;8.472;2022-12-19T09:26:06;55.72;;;40.47;;
14734;SDS011;7458;49.002;8.472;2022-12-19T09:28:35;52.85;;;39.45;;
14734;SDS011;7458;49.002;8.472;2022-12-19T09:31:06;58.92;;;39.45;;
14734;SDS011;7458;49.002;8.472;2022-12-19T09:33:37;53.20;;;39.63;;
14734;SDS011;7458;49.002;8.472;2022-12-19T09:36:03;51.58;;;38.55;;
14734;SDS011;7458;49.002;8.472;2022-12-19T09:38:31;58.67;;;41.13;;
14734;SDS011;7458;49.002;8.472;2022-12-19T09:47:30;48.65;;;38.80;;
14734;SDS011;7458;49.002;8.472;2022-12-19T09:49:57;52.47;;;37.53;;
14734;SDS011;7458;49.002;8.472;2022-12-19T09:52:36;50.55;;;37.45;;
14734;SDS011;7458;49.002;8.472;2022-12-19T10:03:34;49.75;;;40.72;;
14734;SDS011;7458;49.002;8.472;2022-12-19T10:06:21;56.72;;;40.17;;
14734;SDS011;7458;49.002;8.472;2022-12-19T10:08:49;53.45;;;38.95;;
14734;SDS011;7458;49.002;8.472;2022-12-19T10:25:17;53.42;;;37.88;;
14734;SDS011;7458;49.002;8.472;2022-12-19T10:33:48;51.28;;;36.92;;
14734;SDS011;7458;49.002;8.472;2022-12-19T10:36:51;48.92;;;37.88;;
14734;SDS011;7458;49.002;8.472;2022-12-19T10:39:26;51.08;;;38.55;;
14734;SDS011;7458;49.002;8.472;2022-12-19T10:42:11;52.70;;;37.60;;
14734;SDS011;7458;49.002;8.472;2022-12-19T10:44:49;47.30;;;36.50;;
14734;SDS011;7458;49.002;8.472;2022-12-19T10:47:18;55.58;;;35.53;;
14734;SDS011;7458;49.002;8.472;2022-12-19T10:49:44;54.92;;;37.60;;
14734;SDS011;7458;49.002;8.472;2022-12-19T10:52:10;45.10;;;36.88;;
14734;SDS011;7458;49.002;8.472;2022-12-19T10:54:37;45.35;;;36.88;;
14734;SDS011;7458;49.002;8.472;2022-12-19T10:59:55;48.85;;;38.95;;
14734;SDS011;7458;49.002;8.472;2022-12-19T11:05:20;45.30;;;40.45;;
14734;SDS011;7458;49.002;8.472;2022-12-19T11:08:07;45.00;;;37.70;;
14734;SDS011;7458;49.002;8.472;2022-12-19T11:16:08;51.78;;;41.00;;
14734;SDS011;7458;49.002;8.472;2022-12-19T11:18:37;46.20;;;37.40;;
14734;SDS011;7458;49.002;8.472;2022-12-19T11:24:24;48.22;;;35.70;;
14734;SDS011;7458;49.002;8.472;2022-12-19T11:26:28;52.35;;;38.58;;
14734;SDS011;7458;49.002;8.472;2022-12-19T11:32:01;49.35;;;38.35;;
14734;SDS011;7458;49.002;8.472;2022-12-19T11:34:29;45.85;;;36.28;;
14734;SDS011;7458;49.002;8.472;2022-12-19T11:37:17;50.65;;;35.63;;
14734;SDS011;7458;49.002;8.472;2022-12-19T11:39:57;42.95;;;35.67;;
14734;SDS011;7458;49.002;8.472;2022-12-19T11:53:59;45.60;;;33.78;;
14734;SDS011;7458;49.002;8.472;2022-12-19T11:56:36;42.80;;;34.97;;
14734;SDS011;7458;49.002;8.472;2022-12-19T11:59:06;47.15;;;36.45;;
14734;SDS011;7458;49.002;8.472;2022-12-19T12:02:05;42.55;;;32.45;;
14734;SDS011;7458;49.002;8.472;2022-12-19T12:04:49;38.75;;;31.60;;
14734;SDS011;7458;49.002;8.472;2022-12-19T12:07:45;45.63;;;35.20;;
14734;SDS011;7458;49.002;8.472;2022-12-19T12:10:29;46.17;;;33.55;;
14734;SDS011;7458;49.002;8.472;2022-12-19T12:13:02;47.72;;;34.53;;
14734;SDS011;7458;49.002;8.472;2022-12-19T12:15:52;42.28;;;34.38;;
14734;SDS011;7458;49.002;8.472;2022-12-19T12:21:25;47.80;;;34.45;;
14734;SDS011;7458;49.002;8.472;2022-12-19T12:24:05;46.90;;;34.13;;
14734;SDS011;7458;49.002;8.472;2022-12-19T12:27:02;38.00;;;31.63;;
14734;SDS011;7458;49.002;8.472;2022-12-19T12:30:19;41.17;;;32.67;;
14734;SDS011;7458;49.002;8.472;2022-12-19T12:33:01;45.88;;;33.90;;
14734;SDS011;7458;49.002;8.472;2022-12-19T12:36:00;39.35;;;33.38;;
14734;SDS011;7458;49.002;8.472;2022-12-19T12:41:33;48.95;;;34.17;;
14734;SDS011;7458;49.002;8.472;2022-12-19T12:44:31;47.22;;;32.72;;
14734;SDS011;7458;49.002;8.472;2022-12-19T12:47:21;47.60;;;34.55;;
14734;SDS011;7458;49.002;8.472;2022-12-19T12:50:07;42.95;;;33.67;;
14734;SDS011;7458;49.002;8.472;2022-12-19T12:52:42;46.53;;;34.85;;
14734;SDS011;7458;49.002;8.472;2022-12-19T12:55:22;53.42;;;36.67;;
14734;SDS011;7458;49.002;8.472;2022-12-19T12:57:51;44.30;;;33.78;;
14734;SDS011;7458;49.002;8.472;2022-12-19T13:02:50;43.80;;;36.92;;
14734;SDS011;7458;49.002;8.472;2022-12-19T13:08:50;47.72;;;32.97;;
14734;SDS011;7458;49.002;8.472;2022-12-19T13:19:34;46.17;;;36.20;;
14734;SDS011;7458;49.002;8.472;2022-12-19T13:32:26;52.90;;;39.30;;
14734;SDS011;7458;49.002;8.472;2022-12-19T13:35:30;40.47;;;32.25;;
14734;SDS011;7458;49.002;8.472;2022-12-19T13:38:00;42.55;;;32.72;;
14734;SDS011;7458;49.002;8.472;2022-12-19T13:43:12;49.60;;;35.58;;
14734;SDS011;7458;49.002;8.472;2022-12-19T13:46:17;46.03;;;36.53;;
14734;SDS011;7458;49.002;8.472;2022-12-19T13:49:09;44.90;;;34.25;;
14734;SDS011;7458;49.002;8.472;2022-12-19T13:51:47;40.75;;;32.17;;
14734;SDS011;7458;49.002;8.472;2022-12-19T13:54:27;41.60;;;34.50;;
14734;SDS011;7458;49.002;8.472;2022-12-19T13:57:25;43.08;;;33.22;;
14734;SDS011;7458;49.002;8.472;2022-12-19T13:59:59;42.72;;;31.17;;
14734;SDS011;7458;49.002;8.472;2022-12-19T14:02:34;52.60;;;35.47;;
14734;SDS011;7458;49.002;8.472;2022-12-19T14:05:16;48.63;;;32.65;;
14734;SDS011;7458;49.002;8.472;2022-12-19T14:07:48;58.38;;;35.08;;
14734;SDS011;7458;49.002;8.472;2022-12-19T14:10:17;47.50;;;33.58;;
14734;SDS011;7458;49.002;8.472;2022-12-19T14:12:49;44.13;;;33.03;;
14734;SDS011;7458;49.002;8.472;2022-12-19T14:15:38;40.53;;;32.73;;
14734;SDS011;7458;49.002;8.472;2022-12-19T14:18:18;49.65;;;35.40;;
14734;SDS011;7458;49.002;8.472;2022-12-19T14:20:47;47.20;;;33.75;;
14734;SDS011;7458;49.002;8.472;2022-12-19T14:23:14;43.03;;;32.58;;
14734;SDS011;7458;49.002;8.472;2022-12-19T14:28:17;49.45;;;34.17;;
14734;SDS011;7458;49.002;8.472;2022-12-19T14:31:06;41.90;;;32.20;;
14734;SDS011;7458;49.002;8.472;2022-12-19T14:33:44;46.47;;;33.05;;
14734;SDS011;7458;49.002;8.472;2022-12-19T14:36:18;46.20;;;34.50;;
14734;SDS011;7458;49.002;8.472;2022-12-19T14:38:51;42.30;;;32.33;;
14734;SDS011;7458;49.002;8.472;2022-12-19T14:41:19;43.85;;;33.90;;
14734;SDS011;7458;49.002;8.472;2022-12-19T14:44:40;46.63;;;33.58;;
14734;SDS011;7458;49.002;8.472;2022-12-19T14:47:22;46.95;;;32.92;;
14734;SDS011;7458;49.002;8.472;2022-12-19T14:50:01;46.13;;;35.75;;
14734;SDS011;7458;49.002;8.472;2022-12-19T14:53:38;49.85;;;36.03;;
14734;SDS011;7458;49.002;8.472;2022-12-19T14:55:46;49.17;;;33.92;;
14734;SDS011;7458;49.002;8.472;2022-12-19T14:58:30;49.15;;;36.38;;
14734;SDS011;7458;49.002;8.472;2022-12-19T15:00:59;43.45;;;33.03;;
14734;SDS011;7458;49.002;8.472;2022-12-19T15:03:32;48.33;;;36.53;;
14734;SDS011;7458;49.002;8.472;2022-12-19T15:06:14;45.03;;;34.53;;
14734;SDS011;7458;49.002;8.472;2022-12-19T15:08:43;58.83;;;39.15;;
14734;SDS011;7458;49.002;8.472;2022-12-19T15:11:23;62.25;;;37.95;;
14734;SDS011;7458;49.002;8.472;2022-12-19T15:14:23;50.03;;;36.03;;
14734;SDS011;7458;49.002;8.472;2022-12-19T15:17:00;48.42;;;37.00;;
14734;SDS011;7458;49.002;8.472;2022-12-19T15:19:38;52.58;;;37.22;;
14734;SDS011;7458;49.002;8.472;2022-12-19T15:22:04;41.88;;;36.40;;
14734;SDS011;7458;49.002;8.472;2022-12-19T15:24:29;47.63;;;37.65;;
14734;SDS011;7458;49.002;8.472;2022-12-19T15:26:55;42.20;;;34.38;;
14734;SDS011;7458;49.002;8.472;2022-12-19T15:29:21;60.65;;;42.30;;
14734;SDS011;7458;49.002;8.472;2022-12-19T15:31:47;56.63;;;42.42;;
14734;SDS011;7458;49.002;8.472;2022-12-19T15:36:44;64.90;;;42.97;;
14734;SDS011;7458;49.002;8.472;2022-12-19T15:39:10;67.72;;;49.92;;
14734;SDS011;7458;49.002;8.472;2022-12-19T15:41:36;60.05;;;46.70;;
14734;SDS011;7458;49.002;8.472;2022-12-19T15:44:08;65.90;;;46.25;;
14734;SDS011;7458;49.002;8.472;2022-12-19T15:46:42;54.85;;;41.80;;
14734;SDS011;7458;49.002;8.472;2022-12-19T15:49:12;53.67;;;42.20;;
14734;SDS011;7458;49.002;8.472;2022-12-19T15:51:43;63.90;;;47.27;;
14734;SDS011;7458;49.002;8.472;2022-12-19T15:54:10;69.63;;;44.22;;
14734;SDS011;7458;49.002;8.472;2022-12-19T15:56:37;55.05;;;41.03;;
14734;SDS011;7458;49.002;8.472;2022-12-19T15:59:21;60.00;;;42.63;;
14734;SDS011;7458;49.002;8.472;2022-12-19T16:05:01;54.25;;;38.30;;
14734;SDS011;7458;49.002;8.472;2022-12-19T16:07:28;51.80;;;41.53;;
14734;SDS011;7458;49.002;8.472;2022-12-19T16:09:54;66.50;;;42.63;;
14734;SDS011;7458;49.002;8.472;2022-12-19T16:12:21;56.45;;;41.00;;
14734;SDS011;7458;49.002;8.472;2022-12-19T16:14:56;59.67;;;43.67;;
14734;SDS011;7458;49.002;8.472;2022-12-19T16:17:24;57.58;;;43.85;;
14734;SDS011;7458;49.002;8.472;2022-12-19T16:19:54;55.65;;;41.15;;
14734;SDS011;7458;49.002;8.472;2022-12-19T16:22:21;56.58;;;42.55;;
14734;SDS011;7458;49.002;8.472;2022-12-19T16:24:50;76.85;;;53.60;;
14734;SDS011;7458;49.002;8.472;2022-12-19T16:27:21;60.22;;;42.78;;
14734;SDS011;7458;49.002;8.472;2022-12-19T16:29:53;55.28;;;40.78;;
14734;SDS011;7458;49.002;8.472;2022-12-19T16:32:22;60.22;;;46.35;;
14734;SDS011;7458;49.002;8.472;2022-12-19T16:34:49;54.78;;;41.10;;
14734;SDS011;7458;49.002;8.472;2022-12-19T16:37:16;52.60;;;38.60;;
14734;SDS011;7458;49.002;8.472;2022-12-19T16:39:42;57.83;;;42.65;;
14734;SDS011;7458;49.002;8.472;2022-12-19T16:42:12;52.67;;;40.88;;
14734;SDS011;7458;49.002;8.472;2022-12-19T16:44:45;49.40;;;39.15;;
14734;SDS011;7458;49.002;8.472;2022-12-19T16:47:14;46.25;;;38.50;;
14734;SDS011;7458;49.002;8.472;2022-12-19T16:49:42;51.08;;;41.38;;
14734;SDS011;7458;49.002;8.472;2022-12-19T16:52:08;48.30;;;36.65;;
14734;SDS011;7458;49.002;8.472;2022-12-19T16:54:35;45.05;;;38.88;;
14734;SDS011;7458;49.002;8.472;2022-12-19T16:57:00;63.42;;;44.97;;
14734;SDS011;7458;49.002;8.472;2022-12-19T16:59:36;52.22;;;40.80;;
14734;SDS011;7458;49.002;8.472;2022-12-19T17:02:30;54.17;;;42.75;;
14734;SDS011;7458;49.002;8.472;2022-12-19T17:05:32;64.80;;;40.85;;
14734;SDS011;7458;49.002;8.472;2022-12-19T17:07:58;51.65;;;39.92;;
14734;SDS011;7458;49.002;8.472;2022-12-19T17:10:30;57.47;;;41.97;;
14734;SDS011;7458;49.002;8.472;2022-12-19T17:12:57;49.60;;;38.53;;
14734;SDS011;7458;49.002;8.472;2022-12-19T17:15:31;53.75;;;42.13;;
14734;SDS011;7458;49.002;8.472;2022-12-19T17:18:02;67.85;;;52.35;;
14734;SDS011;7458;49.002;8.472;2022-12-19T17:20:38;73.40;;;55.70;;
14734;SDS011;7458;49.002;8.472;2022-12-19T17:23:14;76.22;;;57.28;;
14734;SDS011;7458;49.002;8.472;2022-12-19T17:25:46;70.57;;;55.80;;
14734;SDS011;7458;49.002;8.472;2022-12-19T17:28:12;67.32;;;56.92;;
14734;SDS011;7458;49.002;8.472;2022-12-19T17:30:39;61.17;;;53.13;;
14734;SDS011;7458;49.002;8.472;2022-12-19T17:33:12;75.95;;;55.65;;
14734;SDS011;7458;49.002;8.472;2022-12-19T17:35:40;73.07;;;53.38;;
14734;SDS011;7458;49.002;8.472;2022-12-19T17:38:08;66.82;;;51.10;;